This is the latest recevied weather packets stored in our database for station/object LZ3DJ-10. If no packets are shown the sender has not sent any weather packets the latest 10 day(s).
| Time | Temp. | Humidity | Pressure | Rain* | Wind** | Luminosity | Snow |
|---|---|---|---|---|---|---|---|
| 1787805905 | 18.33° C | 78% | 1016.5 hPa | 0 mm | 0 m/s | - | - |
| 1787805005 | 18.33° C | 81% | 1016.5 hPa | 0 mm | 0 m/s | - | - |
| 1787804106 | 18.33° C | 81% | 1016.4 hPa | 0 mm | 0 m/s | - | - |
| 1787803205 | 17.78° C | 81% | 1016.3 hPa | 0 mm | 0 m/s | - | - |
| 1787802306 | 17.78° C | 81% | 1016.4 hPa | 0 mm | 0 m/s | - | - |
| 1787801405 | 17.78° C | 81% | 1016.3 hPa | 0 mm | 0 m/s | - | - |
| 1787800505 | 17.78° C | 81% | 1016.2 hPa | 0 mm | 0 m/s | - | - |
| 1787799605 | 18.33° C | 80% | 1016 hPa | 0 mm | 0 m/s | - | - |
| 1787798706 | 18.33° C | 80% | 1015.9 hPa | 0 mm | 0 m/s | - | - |
| 1787797805 | 18.33° C | 81% | 1016 hPa | 0 mm | 0 m/s | - | - |
| 1787796906 | 18.89° C | 79% | 1019.3 hPa | 0 mm | 0 m/s | - | - |
| 1787796006 | 18.89° C | 78% | 1015.7 hPa | 0 mm | 0 m/s | - | - |
| 1787795106 | 18.89° C | 78% | 1015.6 hPa | 0 mm | 0 m/s | - | - |
| 1787794205 | 19.44° C | 77% | 1015.5 hPa | 0 mm | 0 m/s | - | - |
| 1787793306 | 19.44° C | 78% | 1015.5 hPa | 0 mm | 0 m/s | - | - |
| 1787792405 | 18.89° C | 79% | 1015.5 hPa | 0 mm | 0 m/s | - | - |
| 1787791505 | 19.44° C | 77% | 1015.4 hPa | 0 mm | 0 m/s | - | - |
| 1787790606 | 19.44° C | 76% | 1015.4 hPa | 0 mm | 0 m/s | - | - |
| 1787789705 | 20° C | 75% | 1015.3 hPa | 0 mm | 0 m/s | - | - |
| 1787788805 | 20° C | 76% | 1015.3 hPa | 0 mm | 0 m/s | - | - |
| 1787787905 | 20.56° C | 74% | 1015.2 hPa | 0 mm | 0 m/s | - | - |
| 1787787006 | 20° C | 75% | 1015.4 hPa | 0 mm | 0 m/s | - | - |
| 1787786105 | 20.56° C | 75% | 1015.1 hPa | 0 mm | 0 m/s | - | - |
| 1787785206 | 20.56° C | 75% | 1015 hPa | 0 mm | 0 m/s | - | - |
| 1787784305 | 20.56° C | 72% | 1015 hPa | 0 mm | 0 m/s | - | - |
* Rain latest hour (hover to see other rain measurements)
** Current wind speed in m/s (hover to see current wind gust speed)